Hauptseite
METAR-TAF:

METAR-TAF

Flughäfen :

Flughafen Tozeur-Nefta

Tozeur, Tunesien

Breite: 33-55N, Länge: 008-06E, Höhe: 87 m

Beobachtung

Neuester Wetterbericht von vor 41 Minuten, um 02:00 UTC
Wind 19 kt aus Ost
Temperatur 28°C
Luftfeuchtigkeit 55%
Luftdruck 1014 hPa
Sichtweite: 8000 m

METAR: DTTZ 180200Z 09019KT 8000 NSC 28/18 Q1014 NOSIG

Zeit: 03:41 (02:41 UTC)

Prognose

Neuester Wetterbericht von vor 3 Stunden und 41 Minuten, um 23:00 UTC
Gültige Prognose vom 18 um 00 UTC bis 18 um 24 UTC
Wind 22 kt aus Ost
Sichtweite: 8000 m
Übergehend zu
vom 18 um 09 UTC bis 18 um 11 UTC
Wind 10 kt aus Ost

TAF: DTTZ 172300Z 1800/1824 09022KT 8000 NSC BECMG 1809/1811 10010KT

Wetterbeobachtungen und Prognosen von mehr als 4000 Flughäfen (METAR und TAF Bericht).

Die verfügbaren Stationen werden durch gelbe und rote Markierungen auf der Karte dargestellt.

Führen Sie die Maus auf sie, um den Namen der Station zu sehen.

Darauf klicken, um die Beobachtung von Wetterbeobachtungen und Prognosen zu sehen.

Um die Karte zu ändern : klicken Sie auf den grünen Tasten mit einem schwarzen Kreuz Zum Vergrößern, auf den grünen Button mit einem Gedankenstrich zu verkleinern, oder auf die grünen Pfeile für benachbarte Karten.


METAR-TAF: